Time;durP1;ratioP1;P1;durP2;ratioP2;P2;SDS_P1;SDS_P2;PMS_P1;PMS_P2;Temp;Humidity;BMP_temperature;BMP_pressure;BME280_temperature;BME280_humidity;BME280_pressure;Samples;Min_cycle;Max_cycle;Signal;HPM_P1;HPM_P2
2022/06/09 00:01:52;;;;;;;8.48;5.80;;;14.60;99.90;;;;;;7397643;19;20629;-62
2022/06/09 00:04:25;;;;;;;8.95;6.32;;;14.40;99.90;;;;;;7400810;19;20014;-61
2022/06/09 00:06:57;;;;;;;10.65;6.65;;;14.60;99.90;;;;;;7400136;19;20503;-61
2022/06/09 00:09:30;;;;;;;14.55;7.75;;;14.40;99.90;;;;;;7398193;19;20037;-62
2022/06/09 00:11:59;;;;;;;12.00;6.95;;;14.30;99.90;;;;;;7401841;19;20010;-62
2022/06/09 00:14:29;;;;;;;12.20;6.90;;;14.50;99.90;;;;;;7394535;19;20514;-62
2022/06/09 00:17:01;;;;;;;14.52;7.30;;;14.20;99.90;;;;;;7401711;19;20018;-62
2022/06/09 00:19:30;;;;;;;12.95;7.55;;;14.40;99.90;;;;;;7399191;19;20097;-62
2022/06/09 00:21:59;;;;;;;17.17;7.45;;;14.20;99.90;;;;;;7396893;19;20019;-62
2022/06/09 00:24:28;;;;;;;15.63;7.90;;;14.30;99.90;;;;;;7398135;19;20025;-61
2022/06/09 00:26:57;;;;;;;19.27;7.78;;;14.40;99.90;;;;;;7398732;19;20026;-61
2022/06/09 00:29:26;;;;;;;13.38;7.43;;;14.20;99.90;;;;;;7393169;19;20018;-63
2022/06/09 00:31:55;;;;;;;13.05;8.02;;;14.30;99.90;;;;;;7396758;19;20360;-62
2022/06/09 00:34:27;;;;;;;16.52;7.63;;;14.40;99.90;;;;;;7398362;19;20015;-61
2022/06/09 00:36:56;;;;;;;20.27;8.10;;;14.30;99.90;;;;;;7398669;19;20365;-62
2022/06/09 00:39:24;;;;;;;16.85;8.93;;;14.20;99.90;;;;;;7398580;19;20015;-62
2022/06/09 00:41:53;;;;;;;20.35;8.88;;;14.20;99.90;;;;;;7400552;19;20500;-62
2022/06/09 00:44:24;;;;;;;20.35;9.00;;;14.10;99.90;;;;;;7401057;19;20025;-62
2022/06/09 00:46:58;;;;;;;21.58;9.30;;;14.10;99.90;;;;;;7389403;19;20026;-62
2022/06/09 00:49:33;;;;;;;21.05;9.82;;;14.20;99.90;;;;;;7399163;19;20070;-62
2022/06/09 00:52:04;;;;;;;23.05;10.25;;;14.20;99.90;;;;;;7399918;19;20333;-62
2022/06/09 00:54:39;;;;;;;22.55;9.75;;;14.30;99.90;;;;;;7398873;19;20015;-62
2022/06/09 00:57:13;;;;;;;26.55;10.95;;;14.30;99.90;;;;;;7399437;19;20018;-62
2022/06/09 00:59:47;;;;;;;27.42;11.27;;;14.30;99.90;;;;;;7397698;19;20021;-61
2022/06/09 01:02:19;;;;;;;27.42;11.52;;;14.10;99.90;;;;;;7397316;19;20014;-62
2022/06/09 01:04:55;;;;;;;32.58;11.98;;;14.20;99.90;;;;;;7398242;19;20372;-62
2022/06/09 01:07:30;;;;;;;30.40;10.80;;;14.20;99.90;;;;;;7396330;19;20029;-62
2022/06/09 01:09:59;;;;;;;;;;;14.10;99.90;;;;;;7398096;19;20026;-62
2022/06/09 01:12:31;;;;;;;31.90;11.30;;;14.10;99.90;;;;;;7397167;19;19922;-62
2022/06/09 01:15:04;;;;;;;32.83;11.85;;;14.10;99.90;;;;;;7396223;19;20018;-62
2022/06/09 01:17:45;;;;;;;32.42;11.07;;;14.10;99.90;;;;;;7393223;19;20014;-61
2022/06/09 01:20:30;;;;;;;32.05;11.77;;;14.20;99.90;;;;;;7398090;19;20010;-62
2022/06/09 01:23:26;;;;;;;31.30;11.07;;;14.00;99.90;;;;;;7398980;19;20491;-62
2022/06/09 01:26:38;;;;;;;27.33;10.38;;;14.00;99.90;;;;;;7396723;19;20018;-61
2022/06/09 01:29:36;;;;;;;27.73;10.27;;;14.10;99.90;;;;;;7397978;19;20019;-61
2022/06/09 01:32:12;;;;;;;27.70;10.43;;;13.80;99.90;;;;;;7397685;19;20361;-61
2022/06/09 01:34:46;;;;;;;32.33;10.40;;;13.80;99.90;;;;;;7395273;19;20014;-63
2022/06/09 01:37:24;;;;;;;24.85;9.40;;;13.90;99.90;;;;;;7396116;19;20025;-61
2022/06/09 01:39:56;;;;;;;31.73;10.63;;;13.70;99.90;;;;;;7395823;19;20018;-62
2022/06/09 01:42:30;;;;;;;38.25;10.88;;;13.70;99.90;;;;;;7396969;19;20018;-61
2022/06/09 01:45:04;;;;;;;30.30;10.77;;;13.70;99.90;;;;;;7395726;19;20484;-62
2022/06/09 01:47:43;;;;;;;33.75;10.88;;;13.70;99.90;;;;;;7395444;19;20015;-61
2022/06/09 01:50:17;;;;;;;29.55;9.95;;;13.60;99.90;;;;;;7398058;19;20029;-61
2022/06/09 01:52:47;;;;;;;26.83;11.32;;;13.70;99.90;;;;;;7396870;19;20070;-61
2022/06/09 01:55:24;;;;;;;37.70;11.33;;;12.50;99.90;;;;;;7395322;19;20018;-62
2022/06/09 01:57:59;;;;;;;30.80;10.85;;;13.60;99.90;;;;;;7396105;19;20019;-62
2022/06/09 02:00:29;;;;;;;26.27;9.98;;;13.70;99.90;;;;;;7396818;19;20034;-62
2022/06/09 02:03:06;;;;;;;31.75;10.68;;;13.70;99.90;;;;;;7397303;19;20015;-63
2022/06/09 02:05:41;;;;;;;29.48;10.05;;;13.60;99.90;;;;;;7396572;19;20095;-62
2022/06/09 02:08:14;;;;;;;32.55;10.52;;;13.70;99.90;;;;;;7396493;19;20349;-61
2022/06/09 02:10:45;;;;;;;32.42;10.45;;;13.60;99.90;;;;;;7395202;19;20019;-63
2022/06/09 02:13:18;;;;;;;34.58;11.18;;;13.50;99.90;;;;;;7397317;19;20073;-62
2022/06/09 02:15:50;;;;;;;28.73;10.95;;;13.70;99.90;;;;;;7393090;19;20029;-61
2022/06/09 02:18:24;;;;;;;31.23;10.80;;;13.50;99.90;;;;;;7397138;19;20029;-62
2022/06/09 02:20:57;;;;;;;32.92;11.27;;;13.60;99.90;;;;;;7391971;19;20022;-61
2022/06/09 02:23:26;;;;;;;34.65;11.20;;;13.60;99.90;;;;;;7395614;19;20022;-61
2022/06/09 02:25:55;;;;;;;34.08;11.23;;;13.50;99.90;;;;;;7393608;19;20074;-62
2022/06/09 02:28:24;;;;;;;27.73;10.65;;;13.70;99.90;;;;;;7396399;19;20038;-61
2022/06/09 02:30:53;;;;;;;23.25;10.98;;;13.80;99.90;;;;;;7396696;19;20025;-61
2022/06/09 02:33:25;;;;;;;27.15;9.93;;;13.50;99.90;;;;;;7394639;19;20021;-61
2022/06/09 02:35:54;;;;;;;27.02;10.00;;;13.60;99.90;;;;;;7394930;19;20014;-61
2022/06/09 02:38:25;;;;;;;33.78;11.50;;;13.60;99.90;;;;;;7395721;19;20014;-61
2022/06/09 02:40:56;;;;;;;31.52;10.25;;;13.50;99.90;;;;;;7394715;19;20018;-61
2022/06/09 02:43:26;;;;;;;35.78;10.52;;;13.50;99.90;;;;;;7395153;19;20018;-61
2022/06/09 02:45:56;;;;;;;33.30;11.27;;;13.80;99.90;;;;;;7394070;19;20010;-61
2022/06/09 02:48:28;;;;;;;32.88;11.30;;;13.50;99.90;;;;;;7394786;19;20023;-61
2022/06/09 02:50:57;;;;;;;28.00;10.23;;;13.50;99.90;;;;;;7394286;19;20022;-61
2022/06/09 02:53:27;;;;;;;32.40;11.20;;;13.40;99.90;;;;;;7394565;19;20022;-61
2022/06/09 02:55:57;;;;;;;33.30;11.45;;;13.40;99.90;;;;;;7392250;19;20010;-62
2022/06/09 02:58:25;;;;;;;27.05;10.70;;;13.40;99.90;;;;;;7395681;19;20033;-62
2022/06/09 03:00:55;;;;;;;38.67;11.82;;;13.50;99.90;;;;;;7393226;19;20022;-62
2022/06/09 03:03:27;;;;;;;32.65;12.07;;;13.40;99.90;;;;;;7397232;19;20048;-62
2022/06/09 03:05:56;;;;;;;33.90;10.90;;;12.50;99.90;;;;;;7392658;19;20416;-62
2022/06/09 03:08:26;;;;;;;27.75;11.60;;;13.40;99.90;;;;;;7395184;19;20364;-62
2022/06/09 03:10:55;;;;;;;27.35;11.40;;;13.40;99.90;;;;;;7393000;19;20063;-62
2022/06/09 03:13:25;;;;;;;28.55;11.73;;;13.40;99.90;;;;;;7394255;19;20081;-62
2022/06/09 03:15:54;;;;;;;29.05;11.25;;;13.40;99.90;;;;;;7392833;19;20022;-62
2022/06/09 03:18:24;;;;;;;34.60;12.30;;;13.40;99.90;;;;;;7395789;19;20348;-62
2022/06/09 03:20:55;;;;;;;30.33;11.63;;;13.40;99.90;;;;;;7393017;19;20026;-62
2022/06/09 03:23:24;;;;;;;28.73;11.65;;;13.20;99.90;;;;;;7392523;19;20419;-62
2022/06/09 03:25:53;;;;;;;34.13;11.73;;;13.50;99.90;;;;;;7394009;19;20025;-62
2022/06/09 03:28:22;;;;;;;30.83;12.35;;;13.40;99.90;;;;;;7393454;19;20379;-62
2022/06/09 03:30:51;;;;;;;34.65;12.40;;;13.30;99.90;;;;;;7394910;19;20018;-62
2022/06/09 03:33:20;;;;;;;29.05;11.65;;;13.40;99.90;;;;;;7395139;19;20029;-61
2022/06/09 03:35:50;;;;;;;33.42;11.75;;;13.40;99.90;;;;;;7400916;19;20376;-61
2022/06/09 03:38:21;;;;;;;28.42;11.70;;;13.30;99.90;;;;;;7399906;19;20078;-62
2022/06/09 03:40:50;;;;;;;27.25;11.75;;;13.30;99.90;;;;;;7403599;19;20429;-61
2022/06/09 03:43:20;;;;;;;34.63;12.05;;;13.50;99.90;;;;;;7397155;19;20018;-61
2022/06/09 03:45:48;;;;;;;32.08;11.10;;;13.40;99.90;;;;;;7402860;19;20347;-62
2022/06/09 03:48:17;;;;;;;27.75;11.68;;;13.50;99.90;;;;;;7401979;19;20018;-62
2022/06/09 03:50:46;;;;;;;33.53;11.98;;;13.50;99.90;;;;;;7399878;19;20467;-61
2022/06/09 03:53:15;;;;;;;28.45;12.25;;;13.40;99.90;;;;;;7399088;19;20014;-62
2022/06/09 03:55:47;;;;;;;28.92;12.05;;;13.50;99.90;;;;;;7402551;19;20018;-63
2022/06/09 03:58:17;;;;;;;28.95;11.70;;;13.40;99.90;;;;;;7399415;19;20035;-63
2022/06/09 04:00:45;;;;;;;30.08;11.90;;;13.40;99.90;;;;;;7401363;19;20014;-63
2022/06/09 04:03:14;;;;;;;32.67;11.98;;;13.40;99.90;;;;;;7397306;19;20018;-63
2022/06/09 04:05:43;;;;;;;29.40;12.05;;;13.70;99.90;;;;;;7401956;19;20022;-62
2022/06/09 04:08:14;;;;;;;29.27;12.27;;;13.40;99.90;;;;;;7397563;19;20112;-62
2022/06/09 04:10:45;;;;;;;27.27;11.45;;;13.50;99.90;;;;;;7398425;19;20110;-62
2022/06/09 04:13:15;;;;;;;32.08;12.05;;;13.60;99.90;;;;;;7398540;19;20014;-62
2022/06/09 04:15:44;;;;;;;27.42;11.80;;;13.70;99.90;;;;;;7395837;19;20459;-62
2022/06/09 04:18:15;;;;;;;29.02;12.93;;;13.50;99.90;;;;;;7396371;19;20027;-62
2022/06/09 04:20:44;;;;;;;28.70;12.75;;;13.50;99.90;;;;;;7400680;19;20018;-62
2022/06/09 04:23:13;;;;;;;29.70;12.23;;;13.80;99.90;;;;;;7398690;19;20025;-62
2022/06/09 04:25:42;;;;;;;29.52;12.77;;;13.40;99.90;;;;;;7398581;19;20077;-62
2022/06/09 04:28:14;;;;;;;28.67;12.40;;;13.50;99.90;;;;;;7396745;19;20014;-62
2022/06/09 04:30:43;;;;;;;27.27;12.48;;;13.50;99.90;;;;;;7398586;19;20039;-62
2022/06/09 04:33:12;;;;;;;28.48;12.00;;;13.60;99.90;;;;;;7398088;19;20007;-62
2022/06/09 04:35:41;;;;;;;29.58;13.30;;;13.50;99.90;;;;;;7401246;19;20032;-62
2022/06/09 04:38:12;;;;;;;33.72;13.65;;;13.50;99.90;;;;;;7395944;19;20018;-62
2022/06/09 04:40:43;;;;;;;29.10;13.27;;;13.50;99.90;;;;;;7401367;19;20023;-61
2022/06/09 04:43:14;;;;;;;28.67;12.85;;;13.50;99.90;;;;;;7395831;19;20010;-61
2022/06/09 04:45:44;;;;;;;27.40;12.75;;;13.50;99.90;;;;;;7396081;19;20021;-62
2022/06/09 04:48:13;;;;;;;31.60;13.02;;;13.20;99.90;;;;;;7396197;19;20060;-62
2022/06/09 04:50:43;;;;;;;30.73;12.98;;;13.40;99.90;;;;;;7401913;19;20471;-62
2022/06/09 04:53:13;;;;;;;34.47;13.07;;;13.60;99.90;;;;;;7398794;19;20024;-62
2022/06/09 04:55:43;;;;;;;27.27;12.98;;;13.40;99.90;;;;;;7397707;19;20018;-62
2022/06/09 04:58:15;;;;;;;28.52;12.70;;;13.30;99.90;;;;;;7397804;19;20011;-62
2022/06/09 05:00:45;;;;;;;34.13;14.57;;;13.50;99.90;;;;;;7399346;19;20121;-62
2022/06/09 05:03:14;;;;;;;31.10;12.85;;;14.30;99.90;;;;;;7395198;19;20018;-63
2022/06/09 05:05:45;;;;;;;28.60;13.93;;;13.50;99.90;;;;;;7399234;19;20022;-62
2022/06/09 05:08:14;;;;;;;29.92;14.30;;;13.60;99.90;;;;;;7396481;19;20011;-62
2022/06/09 05:10:45;;;;;;;34.90;14.43;;;13.60;99.90;;;;;;7399887;19;20540;-62
2022/06/09 05:13:17;;;;;;;30.42;13.45;;;13.70;99.90;;;;;;7396684;19;20038;-62
2022/06/09 05:15:51;;;;;;;27.73;13.40;;;13.70;99.90;;;;;;7395247;19;20364;-62
2022/06/09 05:18:21;;;;;;;27.30;13.63;;;13.50;99.90;;;;;;7395484;19;20026;-63
2022/06/09 05:20:51;;;;;;;27.25;13.18;;;13.60;99.90;;;;;;7400796;19;20082;-62
2022/06/09 05:23:21;;;;;;;31.50;12.82;;;13.90;99.90;;;;;;7397002;19;20025;-62
2022/06/09 05:25:50;;;;;;;30.40;14.18;;;13.80;99.90;;;;;;7396725;19;20408;-62
2022/06/09 05:28:23;;;;;;;29.27;13.10;;;13.80;99.90;;;;;;7396602;19;20018;-62
2022/06/09 05:30:52;;;;;;;29.00;13.80;;;13.80;99.90;;;;;;7395146;19;20023;-62
2022/06/09 05:33:22;;;;;;;30.15;15.07;;;14.20;99.90;;;;;;7397442;19;20023;-62
2022/06/09 05:35:51;;;;;;;29.33;14.85;;;13.70;99.90;;;;;;7395849;19;20011;-62
2022/06/09 05:46:33;;;;;;;31.45;14.27;;;13.80;99.90;;;;;;7396803;19;20022;-63
2022/06/09 05:49:02;;;;;;;32.45;15.95;;;13.90;99.90;;;;;;7397526;19;20371;-63
2022/06/09 05:51:33;;;;;;;36.97;16.85;;;13.90;99.90;;;;;;7399653;19;20368;-62
2022/06/09 05:54:01;;;;;;;33.83;16.50;;;13.70;99.90;;;;;;7395591;19;20034;-63
2022/06/09 05:56:30;;;;;;;34.05;16.25;;;13.80;99.90;;;;;;7397243;19;20007;-64
2022/06/09 05:59:02;;;;;;;31.50;15.95;;;13.80;99.90;;;;;;7398698;19;20351;-64
2022/06/09 06:01:32;;;;;;;31.95;16.25;;;13.70;99.90;;;;;;7396663;19;20028;-63
2022/06/09 06:04:01;;;;;;;30.35;16.45;;;13.70;99.90;;;;;;7393821;19;20390;-65
2022/06/09 06:06:36;;;;;;;34.42;15.68;;;13.90;99.90;;;;;;7394054;19;20025;-63
2022/06/09 06:09:08;;;;;;;29.95;15.98;;;14.00;99.90;;;;;;7393081;19;20078;-64
2022/06/09 06:11:39;;;;;;;34.42;15.65;;;14.00;99.90;;;;;;7392453;19;20042;-64
2022/06/09 06:14:11;;;;;;;27.10;14.57;;;14.60;99.90;;;;;;7397725;19;20018;-63
2022/06/09 06:16:41;;;;;;;29.75;15.30;;;14.00;99.90;;;;;;7395079;19;20014;-64
2022/06/09 06:19:13;;;;;;;28.70;15.70;;;14.20;99.90;;;;;;7397446;19;20010;-63
2022/06/09 06:21:43;;;;;;;31.00;15.90;;;14.30;99.90;;;;;;7395020;19;20014;-61
2022/06/09 06:24:13;;;;;;;32.50;14.70;;;14.00;99.90;;;;;;7390740;19;20488;-62
2022/06/09 06:26:43;;;;;;;30.75;14.65;;;14.20;99.90;;;;;;7374898;19;20026;-62
2022/06/09 06:29:18;;;;;;;30.85;15.02;;;14.30;99.90;;;;;;7386530;19;20502;-63
2022/06/09 06:31:47;;;;;;;28.08;13.98;;;14.60;99.90;;;;;;7393283;19;20033;-63
2022/06/09 06:34:16;;;;;;;28.45;14.65;;;14.30;99.90;;;;;;7397956;19;20022;-62
2022/06/09 06:36:45;;;;;;;30.50;15.32;;;14.20;99.90;;;;;;7396555;19;20030;-63
2022/06/09 06:39:14;;;;;;;29.42;15.32;;;14.30;99.90;;;;;;7395864;19;20011;-62
2022/06/09 06:41:44;;;;;;;28.25;15.57;;;14.50;99.90;;;;;;7394299;19;20006;-62
2022/06/09 06:44:15;;;;;;;29.08;15.77;;;14.40;99.90;;;;;;7395970;19;20022;-62
2022/06/09 06:46:44;;;;;;;28.95;15.05;;;14.40;99.90;;;;;;7393312;19;20027;-61
2022/06/09 06:49:14;;;;;;;32.97;15.43;;;14.40;99.90;;;;;;7393120;19;20014;-62
2022/06/09 06:51:42;;;;;;;29.38;15.43;;;14.30;99.90;;;;;;7395786;19;20014;-62
2022/06/09 06:54:11;;;;;;;27.58;15.63;;;14.20;99.90;;;;;;7396628;19;20082;-62
2022/06/09 06:56:40;;;;;;;26.90;14.23;;;14.20;99.90;;;;;;7397285;19;20078;-62
2022/06/09 06:59:10;;;;;;;27.48;14.50;;;14.30;99.90;;;;;;7393108;19;20038;-62
2022/06/09 07:01:42;;;;;;;28.20;14.05;;;14.20;99.90;;;;;;7395661;19;20014;-61
2022/06/09 07:04:11;;;;;;;29.05;14.77;;;14.20;99.90;;;;;;7390963;19;20078;-63
2022/06/09 07:06:40;;;;;;;28.40;14.73;;;14.20;99.90;;;;;;7396760;19;20021;-62
2022/06/09 07:09:09;;;;;;;26.20;15.05;;;14.40;99.90;;;;;;7390220;19;20428;-62
2022/06/09 07:11:39;;;;;;;30.88;15.48;;;14.50;99.90;;;;;;7395941;19;20019;-63
2022/06/09 07:14:08;;;;;;;29.30;15.43;;;14.30;99.90;;;;;;7393967;19;20021;-62
2022/06/09 07:16:37;;;;;;;30.98;16.00;;;14.90;99.90;;;;;;7392756;19;20038;-62
2022/06/09 07:19:09;;;;;;;29.10;15.82;;;14.80;99.90;;;;;;7396102;19;20021;-62
2022/06/09 07:21:38;;;;;;;28.05;14.75;;;14.50;99.90;;;;;;7393267;19;20014;-62
2022/06/09 07:24:08;;;;;;;26.27;14.35;;;14.60;99.90;;;;;;7378661;19;20121;-62
2022/06/09 07:26:37;;;;;;;22.40;13.48;;;14.80;99.90;;;;;;7395315;19;20027;-62
2022/06/09 07:29:06;;;;;;;29.08;15.70;;;14.90;99.90;;;;;;7392584;19;20487;-62
2022/06/09 07:31:35;;;;;;;25.48;14.95;;;14.90;99.90;;;;;;7392842;19;20047;-62
2022/06/09 07:34:04;;;;;;;24.27;14.15;;;15.00;99.90;;;;;;7393572;19;20015;-63
2022/06/09 07:36:36;;;;;;;24.73;12.85;;;14.90;99.90;;;;;;7392398;19;20014;-62
2022/06/09 07:39:06;;;;;;;24.42;13.02;;;14.80;99.90;;;;;;7383286;19;20026;-63
2022/06/09 07:41:35;;;;;;;24.63;14.43;;;14.80;99.90;;;;;;7393680;19;20015;-62
2022/06/09 07:44:07;;;;;;;22.65;13.90;;;14.90;99.90;;;;;;7391210;19;20030;-62
2022/06/09 07:46:36;;;;;;;19.83;12.45;;;15.10;99.90;;;;;;7384062;19;20086;-62
2022/06/09 07:49:06;;;;;;;22.90;12.60;;;15.00;99.90;;;;;;7395383;19;20408;-62
2022/06/09 07:51:38;;;;;;;19.83;11.80;;;15.20;99.90;;;;;;7389614;19;20039;-62
2022/06/09 07:54:08;;;;;;;18.83;12.13;;;15.20;99.90;;;;;;7392918;19;20022;-62
2022/06/09 07:56:37;;;;;;;18.08;10.98;;;15.20;99.90;;;;;;7394152;19;20015;-64
2022/06/09 07:59:08;;;;;;;21.58;12.15;;;14.90;99.90;;;;;;7391591;19;20020;-64
2022/06/09 08:01:38;;;;;;;20.13;12.20;;;15.40;99.90;;;;;;7392481;19;20011;-64
2022/06/09 08:04:08;;;;;;;17.27;11.18;;;15.20;99.90;;;;;;7390377;19;20015;-64
2022/06/09 08:06:39;;;;;;;17.35;10.80;;;15.30;99.90;;;;;;7395087;19;20014;-63
2022/06/09 08:09:09;;;;;;;18.25;11.15;;;15.50;99.90;;;;;;7391716;19;20025;-64
2022/06/09 08:11:40;;;;;;;16.83;10.82;;;15.40;99.90;;;;;;7390948;19;20014;-64
2022/06/09 08:14:11;;;;;;;18.40;10.90;;;15.50;99.90;;;;;;7388492;19;20019;-64
2022/06/09 08:16:40;;;;;;;16.02;10.25;;;15.40;99.90;;;;;;7389476;19;20495;-64
2022/06/09 08:19:10;;;;;;;15.70;9.18;;;15.40;99.90;;;;;;7393627;19;20494;-64
2022/06/09 08:21:41;;;;;;;14.73;8.55;;;15.40;99.90;;;;;;7399136;19;20018;-64
2022/06/09 08:24:11;;;;;;;15.15;9.05;;;15.60;99.90;;;;;;7390845;19;20010;-64
2022/06/09 08:26:40;;;;;;;11.82;8.48;;;15.70;99.90;;;;;;7398193;19;20022;-64
2022/06/09 08:29:09;;;;;;;12.88;7.45;;;15.60;99.90;;;;;;7399723;19;20017;-64
2022/06/09 08:31:39;;;;;;;11.68;7.90;;;15.50;99.90;;;;;;7398832;19;20014;-64
2022/06/09 08:34:09;;;;;;;11.57;7.90;;;15.70;99.90;;;;;;7399507;19;20072;-64
2022/06/09 08:36:41;;;;;;;13.20;7.80;;;15.80;99.90;;;;;;7399617;19;20479;-64
2022/06/09 08:39:11;;;;;;;12.43;7.97;;;15.70;99.90;;;;;;7397976;19;20010;-64
2022/06/09 08:41:47;;;;;;;9.00;7.00;;;15.80;99.90;;;;;;7397908;19;20371;-64
2022/06/09 08:44:26;;;;;;;9.93;6.07;;;15.90;99.90;;;;;;7393500;19;20019;-64
2022/06/09 08:47:04;;;;;;;9.57;5.07;;;16.00;99.90;;;;;;7389080;19;20023;-64
2022/06/09 08:49:54;;;;;;;8.52;4.93;;;16.00;99.90;;;;;;7396024;19;20074;-64
2022/06/09 08:52:38;;;;;;;8.90;5.28;;;16.00;99.90;;;;;;7397615;19;20018;-64
2022/06/09 08:55:20;;;;;;;9.05;5.28;;;16.30;99.90;;;;;;7397228;19;20019;-64
2022/06/09 08:57:51;;;;;;;9.18;5.53;;;16.20;99.90;;;;;;7399309;19;20047;-62
2022/06/09 09:00:24;;;;;;;6.78;4.53;;;16.20;99.90;;;;;;7397596;19;20018;-64
2022/06/09 09:02:57;;;;;;;6.35;4.40;;;16.30;99.90;;;;;;7396795;19;20054;-64
2022/06/09 09:05:33;;;;;;;6.38;4.75;;;16.20;99.90;;;;;;7399940;19;20031;-64
2022/06/09 09:08:09;;;;;;;6.57;3.20;;;16.50;99.90;;;;;;7399532;19;20015;-63
2022/06/09 09:10:52;;;;;;;6.70;2.92;;;16.40;99.90;;;;;;7396910;19;20598;-64
2022/06/09 09:13:38;;;;;;;6.13;2.72;;;16.30;99.90;;;;;;7398103;19;20018;-64
2022/06/09 09:16:12;;;;;;;;;;;16.60;99.90;;;;;;7397349;19;20516;-64
2022/06/09 09:18:48;;;;;;;7.43;3.00;;;17.60;99.90;;;;;;7395321;19;20269;-64
2022/06/09 09:21:28;;;;;;;8.75;3.75;;;16.50;99.90;;;;;;7391873;19;20015;-65
2022/06/09 09:24:08;;;;;;;6.80;3.35;;;16.80;99.90;;;;;;7398118;19;20066;-64
2022/06/09 09:26:50;;;;;;;4.55;2.40;;;16.90;99.90;;;;;;7399241;19;20011;-64
2022/06/09 09:29:27;;;;;;;6.97;2.33;;;16.90;99.90;;;;;;7392791;19;20026;-64
2022/06/09 09:31:59;;;;;;;2.53;1.70;;;17.00;99.90;;;;;;7394222;19;20014;-64
2022/06/09 09:34:35;;;;;;;5.03;2.00;;;16.80;99.90;;;;;;7395126;19;20113;-64
2022/06/09 09:37:25;;;;;;;2.83;1.50;;;17.10;99.90;;;;;;7392533;19;20014;-64
2022/06/09 09:40:01;;;;;;;3.38;1.85;;;17.10;99.90;;;;;;7391960;19;20047;-65
2022/06/09 09:42:32;;;;;;;4.85;1.80;;;17.10;99.90;;;;;;7398369;19;20011;-65
2022/06/09 09:45:07;;;;;;;5.47;1.98;;;17.10;99.90;;;;;;7397489;19;20028;-64
2022/06/09 09:47:46;;;;;;;4.53;1.80;;;17.40;99.90;;;;;;7398428;19;20359;-65
2022/06/09 09:50:41;;;;;;;3.92;1.90;;;17.50;99.90;;;;;;7398423;19;20019;-64
2022/06/09 09:53:26;;;;;;;2.90;1.65;;;17.20;99.90;;;;;;7396224;19;20073;-65
2022/06/09 09:56:00;;;;;;;3.55;1.65;;;17.30;99.90;;;;;;7392097;19;20073;-65
2022/06/09 09:58:33;;;;;;;4.57;1.80;;;17.40;99.90;;;;;;7392672;19;20539;-64
2022/06/09 10:01:06;;;;;;;7.20;1.77;;;17.50;99.90;;;;;;7393714;19;20018;-64
2022/06/09 10:09:23;;;;;;;3.92;1.55;;;17.80;99.90;;;;;;7392536;19;20439;-67
2022/06/09 10:11:59;;;;;;;5.13;2.00;;;17.70;99.90;;;;;;7382028;19;20018;-64
2022/06/09 10:14:38;;;;;;;3.92;1.50;;;17.70;99.90;;;;;;7394993;19;20490;-65
2022/06/09 10:17:10;;;;;;;5.72;1.42;;;18.00;99.90;;;;;;7398305;19;20021;-64
2022/06/09 10:19:40;;;;;;;4.82;1.83;;;17.80;99.90;;;;;;7394436;19;20021;-63
2022/06/09 10:22:21;;;;;;;3.97;1.60;;;17.70;99.90;;;;;;7395556;19;20018;-64
2022/06/09 10:24:57;;;;;;;4.95;1.60;;;17.60;99.90;;;;;;7394241;19;20498;-64
2022/06/09 10:27:35;;;;;;;3.88;1.58;;;17.80;99.90;;;;;;7394923;19;20019;-65
2022/06/09 10:30:13;;;;;;;2.45;1.42;;;17.80;99.90;;;;;;7392916;19;20053;-64
2022/06/09 10:32:49;;;;;;;3.33;1.17;;;17.70;99.90;;;;;;7394778;19;20486;-66
2022/06/09 10:35:29;;;;;;;3.63;1.30;;;17.90;99.90;;;;;;7393770;19;20428;-65
2022/06/09 10:38:03;;;;;;;2.20;1.13;;;18.20;99.90;;;;;;7393773;19;20103;-64
2022/06/09 10:40:40;;;;;;;4.65;1.10;;;18.30;99.90;;;;;;7391616;19;20014;-65
2022/06/09 10:43:21;;;;;;;3.33;1.17;;;18.40;99.90;;;;;;7392739;19;20011;-66
2022/06/09 10:45:59;;;;;;;3.03;1.40;;;18.50;99.90;;;;;;7393228;19;20046;-66
2022/06/09 10:57:02;;;;;;;3.53;1.20;;;18.30;99.90;;;;;;7392026;19;20049;-64
2022/06/09 10:59:40;;;;;;;4.50;1.65;;;18.10;99.90;;;;;;7392981;19;20014;-65
2022/06/09 11:02:15;;;;;;;4.00;1.50;;;18.30;99.90;;;;;;7392419;19;20027;-65
2022/06/09 11:04:45;;;;;;;5.53;1.52;;;18.40;99.90;;;;;;7393653;19;20019;-65
2022/06/09 11:07:30;;;;;;;1.92;1.20;;;18.40;99.90;;;;;;7396111;19;20349;-64
2022/06/09 11:10:17;;;;;;;4.05;1.40;;;18.60;99.90;;;;;;7389992;19;20024;-64
2022/06/09 11:12:55;;;;;;;7.47;2.15;;;18.20;99.90;;;;;;7394328;19;20018;-64
2022/06/09 11:15:39;;;;;;;3.70;1.90;;;18.10;99.90;;;;;;7393029;19;20376;-65
2022/06/09 11:18:20;;;;;;;2.65;1.27;;;17.90;99.90;;;;;;7394295;19;20011;-66
2022/06/09 11:21:03;;;;;;;5.95;1.63;;;18.20;99.90;;;;;;7391968;19;20441;-65
2022/06/09 11:24:01;;;;;;;7.53;1.95;;;18.20;99.90;;;;;;7390248;19;20011;-64
2022/06/09 11:26:40;;;;;;;4.28;1.70;;;18.40;99.90;;;;;;7394923;19;20087;-65
2022/06/09 11:29:27;;;;;;;4.50;1.63;;;18.70;99.90;;;;;;7386494;19;20011;-64
2022/06/09 11:32:09;;;;;;;4.30;1.75;;;18.90;99.90;;;;;;7392911;19;20602;-63
2022/06/09 11:35:00;;;;;;;6.28;1.90;;;18.90;99.90;;;;;;7386049;19;20022;-64
2022/06/09 11:37:57;;;;;;;3.30;1.33;;;18.70;99.90;;;;;;7394002;19;20024;-65
2022/06/09 11:40:37;;;;;;;3.00;1.10;;;18.90;99.90;;;;;;7392875;19;20600;-65
2022/06/09 11:43:37;;;;;;;3.35;1.30;;;18.90;99.90;;;;;;7392759;19;20020;-64
2022/06/09 11:46:09;;;;;;;4.38;1.52;;;19.00;99.90;;;;;;7389664;19;20022;-64
2022/06/09 11:48:44;;;;;;;4.10;1.42;;;19.00;99.90;;;;;;7389997;19;20015;-64
2022/06/09 11:51:17;;;;;;;5.07;1.55;;;18.90;99.90;;;;;;7391294;19;20026;-64
2022/06/09 11:53:51;;;;;;;7.93;1.65;;;19.00;99.90;;;;;;7392419;19;20011;-65
2022/06/09 11:56:37;;;;;;;3.58;1.42;;;19.10;99.90;;;;;;7394373;19;20026;-64
2022/06/09 11:59:18;;;;;;;6.53;1.40;;;19.10;99.90;;;;;;7396847;19;20448;-63
2022/06/09 12:02:01;;;;;;;4.72;1.55;;;19.00;99.90;;;;;;7397750;19;20014;-63
2022/06/09 12:04:54;;;;;;;5.68;1.77;;;19.00;99.90;;;;;;7397930;19;20014;-62
2022/06/09 12:07:41;;;;;;;4.60;1.38;;;18.90;99.90;;;;;;7396132;19;20034;-64
2022/06/09 12:10:28;;;;;;;4.63;1.33;;;19.10;99.90;;;;;;7399248;19;20101;-62
2022/06/09 12:13:26;;;;;;;5.63;1.50;;;19.00;99.90;;;;;;7400176;19;20027;-63
2022/06/09 12:16:00;;;;;;;2.08;1.15;;;19.00;99.90;;;;;;7390651;19;20010;-63
2022/06/09 12:18:36;;;;;;;7.90;1.48;;;19.30;99.80;;;;;;7398778;19;20134;-63
2022/06/09 12:21:16;;;;;;;2.45;1.30;;;19.20;99.50;;;;;;7395957;19;20028;-63
2022/06/09 12:24:20;;;;;;;5.20;1.77;;;19.10;99.10;;;;;;7397869;19;20031;-63
2022/06/09 12:26:55;;;;;;;1.67;1.10;;;19.30;99.10;;;;;;7396617;19;20030;-63
2022/06/09 12:29:43;;;;;;;6.53;1.45;;;19.40;99.20;;;;;;7397462;19;20018;-63
2022/06/09 12:32:46;;;;;;;5.95;1.30;;;19.40;99.70;;;;;;7400870;19;20045;-62
2022/06/09 12:35:29;;;;;;;3.55;1.40;;;19.40;99.70;;;;;;7400553;19;20015;-63
2022/06/09 12:38:07;;;;;;;4.35;1.42;;;19.60;99.30;;;;;;7394616;19;20024;-62
2022/06/09 12:40:43;;;;;;;3.05;1.00;;;19.70;99.10;;;;;;7397279;19;20018;-63
2022/06/09 12:43:26;;;;;;;4.78;1.10;;;19.60;97.80;;;;;;7395350;19;20018;-62
2022/06/09 12:46:23;;;;;;;5.88;1.42;;;19.60;97.10;;;;;;7395557;19;20029;-62
2022/06/09 12:48:53;;;;;;;4.10;1.40;;;19.80;97.70;;;;;;7398266;19;20047;-62
2022/06/09 12:51:26;;;;;;;3.80;1.20;;;19.90;98.40;;;;;;7397979;19;20023;-63
2022/06/09 12:54:02;;;;;;;3.95;1.20;;;19.80;98.00;;;;;;7396749;19;20018;-63
2022/06/09 12:56:40;;;;;;;2.53;1.13;;;19.90;97.90;;;;;;7399712;19;20011;-64
2022/06/09 12:59:22;;;;;;;5.38;1.40;;;19.90;97.90;;;;;;7396982;19;20014;-64
2022/06/09 13:01:58;;;;;;;2.88;1.10;;;19.80;97.20;;;;;;7400166;19;20015;-63
2022/06/09 13:04:28;;;;;;;2.33;1.10;;;19.90;97.20;;;;;;7401125;19;20499;-63
2022/06/09 13:07:00;;;;;;;6.35;1.17;;;19.80;98.00;;;;;;7395406;19;20029;-63
2022/06/09 13:09:35;;;;;;;4.03;1.10;;;19.90;97.80;;;;;;7396666;19;20032;-63
2022/06/09 13:14:51;;;;;;;3.78;1.02;;;20.00;97.30;;;;;;7396666;19;20010;-63
2022/06/09 13:17:23;;;;;;;3.90;1.40;;;20.20;96.60;;;;;;7397260;19;20014;-63
2022/06/09 13:20:02;;;;;;;5.15;1.20;;;20.50;97.20;;;;;;7398825;19;20018;-62
2022/06/09 13:22:32;;;;;;;3.90;1.10;;;20.50;96.00;;;;;;7394022;19;20138;-63
2022/06/09 13:25:05;;;;;;;5.93;1.30;;;20.40;96.10;;;;;;7395743;19;20014;-62
2022/06/09 13:27:35;;;;;;;2.53;1.42;;;20.30;96.10;;;;;;7398029;19;20011;-63
2022/06/09 13:30:10;;;;;;;3.28;1.20;;;20.50;95.80;;;;;;7394845;19;20022;-62
2022/06/09 13:32:42;;;;;;;3.77;1.10;;;20.30;95.40;;;;;;7398251;19;20030;-63
2022/06/09 13:35:37;;;;;;;3.83;1.33;;;20.40;96.20;;;;;;7399869;19;20273;-64